Startpagina
METAR-TAF:

METAR-TAF

Vliegvelden :

Militair vliegvled

Tulln an der Donau, Oostenrijk

breedte: 48-19N, lengte: 016-07E, hoogte: 175 m

METAR: ontbreekt

Tijdstip: 15:16 (14:16 UTC)

Verwachting

Dit bericht is 3 uur en het 1 minuten geleden gemaakt, om 11:15 UTC
Verwachting geldig van 26 om 12 UTC tot 26 om 21 UTC
Wind 16 kt uit het westen
Zicht 10 km of meer
Weinig wolken op 4000 ft
Verspreide wolken op 8000 ft
Gebroken wolken op 11000 ft
Tijdelijke
van 26 om 12 UTC tot 26 om 16 UTC
Verspreide wolken op 4000 ft
Gebroken wolken op 8000 ft

TAF: LOXT 261115Z 2612/2621 26016KT 9999 FEW040 SCT080 BKN110 TEMPO 2612/2616 27020G30 SCT040 BKN080

Waarnemingen en weersverwachtingen van meer dan 4000 vliegvelden (METAR en TAF).

De beschikbare stations zijn de gele en rode punten op de kaart.

Ga met uw muis naar het station om de naam te zien.

Klik dan om waarnemingen en weersverwachtingen te zien.

kaart wijzigen: klik op de groene knoppen met een zwart kruis om in te zoomen, op de groene knop met een streepje om uit te zoomen of op de groene pijlen voor aangrenzende kaarten.


METAR-TAF: